sensor_id;sensor_type;location;lat;lon;timestamp;P1;durP1;ratioP1;P2;durP2;ratioP2
75793;SDS011;64418;47.536;19.074;2023-02-23T00:01:22;15.33;;;7.30;;
75793;SDS011;64418;47.536;19.074;2023-02-23T00:03:52;21.95;;;7.85;;
75793;SDS011;64418;47.536;19.074;2023-02-23T00:06:19;17.42;;;7.70;;
75793;SDS011;64418;47.536;19.074;2023-02-23T00:08:45;16.27;;;7.77;;
75793;SDS011;64418;47.536;19.074;2023-02-23T00:11:10;17.60;;;7.67;;
75793;SDS011;64418;47.536;19.074;2023-02-23T00:13:37;15.02;;;7.37;;
75793;SDS011;64418;47.536;19.074;2023-02-23T00:16:04;17.48;;;7.60;;
75793;SDS011;64418;47.536;19.074;2023-02-23T00:18:30;17.12;;;8.15;;
75793;SDS011;64418;47.536;19.074;2023-02-23T00:20:57;17.50;;;7.47;;
75793;SDS011;64418;47.536;19.074;2023-02-23T00:23:23;22.33;;;7.90;;
75793;SDS011;64418;47.536;19.074;2023-02-23T00:25:49;16.17;;;7.35;;
75793;SDS011;64418;47.536;19.074;2023-02-23T00:28:15;20.23;;;7.87;;
75793;SDS011;64418;47.536;19.074;2023-02-23T00:30:40;20.35;;;7.72;;
75793;SDS011;64418;47.536;19.074;2023-02-23T00:33:06;18.80;;;7.70;;
75793;SDS011;64418;47.536;19.074;2023-02-23T00:35:31;15.48;;;7.50;;
75793;SDS011;64418;47.536;19.074;2023-02-23T00:37:59;16.98;;;7.90;;
75793;SDS011;64418;47.536;19.074;2023-02-23T00:40:24;20.27;;;7.97;;
75793;SDS011;64418;47.536;19.074;2023-02-23T00:42:50;15.55;;;7.03;;
75793;SDS011;64418;47.536;19.074;2023-02-23T00:45:16;17.60;;;7.40;;
75793;SDS011;64418;47.536;19.074;2023-02-23T00:47:42;18.27;;;6.82;;
75793;SDS011;64418;47.536;19.074;2023-02-23T00:50:09;15.70;;;6.35;;
75793;SDS011;64418;47.536;19.074;2023-02-23T00:52:37;14.10;;;6.37;;
75793;SDS011;64418;47.536;19.074;2023-02-23T00:55:05;17.77;;;7.30;;
75793;SDS011;64418;47.536;19.074;2023-02-23T00:57:32;15.18;;;6.07;;
75793;SDS011;64418;47.536;19.074;2023-02-23T00:59:57;15.32;;;5.75;;
75793;SDS011;64418;47.536;19.074;2023-02-23T01:02:23;16.77;;;6.30;;
75793;SDS011;64418;47.536;19.074;2023-02-23T01:04:50;15.70;;;6.25;;
75793;SDS011;64418;47.536;19.074;2023-02-23T01:07:15;12.87;;;6.30;;
75793;SDS011;64418;47.536;19.074;2023-02-23T01:09:41;15.40;;;5.80;;
75793;SDS011;64418;47.536;19.074;2023-02-23T01:12:08;13.43;;;5.90;;
75793;SDS011;64418;47.536;19.074;2023-02-23T01:14:34;14.05;;;5.40;;
75793;SDS011;64418;47.536;19.074;2023-02-23T01:17:01;14.98;;;5.50;;
75793;SDS011;64418;47.536;19.074;2023-02-23T01:19:27;13.00;;;4.93;;
75793;SDS011;64418;47.536;19.074;2023-02-23T01:21:53;12.95;;;4.97;;
75793;SDS011;64418;47.536;19.074;2023-02-23T01:24:18;10.97;;;4.90;;
75793;SDS011;64418;47.536;19.074;2023-02-23T01:26:45;9.48;;;4.28;;
75793;SDS011;64418;47.536;19.074;2023-02-23T01:29:13;13.52;;;4.82;;
75793;SDS011;64418;47.536;19.074;2023-02-23T01:31:41;11.75;;;4.90;;
75793;SDS011;64418;47.536;19.074;2023-02-23T01:34:08;14.95;;;4.80;;
75793;SDS011;64418;47.536;19.074;2023-02-23T01:36:36;15.47;;;5.13;;
75793;SDS011;64418;47.536;19.074;2023-02-23T01:39:03;9.80;;;4.67;;
75793;SDS011;64418;47.536;19.074;2023-02-23T01:41:30;13.82;;;5.60;;
75793;SDS011;64418;47.536;19.074;2023-02-23T01:43:56;10.85;;;5.37;;
75793;SDS011;64418;47.536;19.074;2023-02-23T01:46:25;13.65;;;5.75;;
75793;SDS011;64418;47.536;19.074;2023-02-23T01:48:51;13.35;;;5.57;;
75793;SDS011;64418;47.536;19.074;2023-02-23T01:51:19;9.87;;;4.80;;
75793;SDS011;64418;47.536;19.074;2023-02-23T01:53:49;12.73;;;4.40;;
75793;SDS011;64418;47.536;19.074;2023-02-23T01:56:20;15.77;;;4.68;;
75793;SDS011;64418;47.536;19.074;2023-02-23T01:58:50;13.68;;;5.10;;
75793;SDS011;64418;47.536;19.074;2023-02-23T02:01:19;13.18;;;5.45;;
75793;SDS011;64418;47.536;19.074;2023-02-23T02:03:48;14.10;;;5.73;;
75793;SDS011;64418;47.536;19.074;2023-02-23T02:06:18;15.93;;;6.43;;
75793;SDS011;64418;47.536;19.074;2023-02-23T02:08:47;14.70;;;6.18;;
75793;SDS011;64418;47.536;19.074;2023-02-23T02:11:17;13.77;;;5.60;;
75793;SDS011;64418;47.536;19.074;2023-02-23T02:13:43;12.48;;;6.05;;
75793;SDS011;64418;47.536;19.074;2023-02-23T02:16:18;12.70;;;5.10;;
75793;SDS011;64418;47.536;19.074;2023-02-23T02:19:19;15.32;;;4.90;;
75793;SDS011;64418;47.536;19.074;2023-02-23T02:22:21;12.15;;;4.65;;
75793;SDS011;64418;47.536;19.074;2023-02-23T02:25:23;12.43;;;4.82;;
75793;SDS011;64418;47.536;19.074;2023-02-23T02:34:07;13.73;;;4.50;;
75793;SDS011;64418;47.536;19.074;2023-02-23T02:36:58;14.02;;;4.03;;
75793;SDS011;64418;47.536;19.074;2023-02-23T02:39:39;12.68;;;3.53;;
75793;SDS011;64418;47.536;19.074;2023-02-23T02:42:15;9.83;;;3.90;;
75793;SDS011;64418;47.536;19.074;2023-02-23T02:44:49;15.52;;;4.43;;
75793;SDS011;64418;47.536;19.074;2023-02-23T02:47:23;9.88;;;3.92;;
75793;SDS011;64418;47.536;19.074;2023-02-23T02:49:55;12.15;;;4.53;;
75793;SDS011;64418;47.536;19.074;2023-02-23T02:52:30;13.07;;;4.28;;
75793;SDS011;64418;47.536;19.074;2023-02-23T02:55:00;15.30;;;5.40;;
75793;SDS011;64418;47.536;19.074;2023-02-23T02:57:31;16.37;;;6.03;;
75793;SDS011;64418;47.536;19.074;2023-02-23T02:59:58;12.52;;;5.30;;
75793;SDS011;64418;47.536;19.074;2023-02-23T03:02:23;18.27;;;5.67;;
75793;SDS011;64418;47.536;19.074;2023-02-23T03:04:49;15.50;;;5.93;;
75793;SDS011;64418;47.536;19.074;2023-02-23T03:07:19;14.52;;;5.93;;
75793;SDS011;64418;47.536;19.074;2023-02-23T03:09:53;10.80;;;5.20;;
75793;SDS011;64418;47.536;19.074;2023-02-23T03:12:26;10.88;;;5.43;;
75793;SDS011;64418;47.536;19.074;2023-02-23T03:15:00;12.30;;;5.10;;
75793;SDS011;64418;47.536;19.074;2023-02-23T03:17:37;15.00;;;5.30;;
75793;SDS011;64418;47.536;19.074;2023-02-23T03:20:11;17.23;;;6.12;;
75793;SDS011;64418;47.536;19.074;2023-02-23T03:22:46;19.40;;;5.97;;
75793;SDS011;64418;47.536;19.074;2023-02-23T03:25:22;15.23;;;6.00;;
75793;SDS011;64418;47.536;19.074;2023-02-23T03:27:55;12.50;;;5.23;;
75793;SDS011;64418;47.536;19.074;2023-02-23T03:30:28;10.32;;;4.95;;
75793;SDS011;64418;47.536;19.074;2023-02-23T03:33:05;16.23;;;5.70;;
75793;SDS011;64418;47.536;19.074;2023-02-23T03:35:37;14.13;;;5.43;;
75793;SDS011;64418;47.536;19.074;2023-02-23T03:38:14;16.58;;;5.47;;
75793;SDS011;64418;47.536;19.074;2023-02-23T03:40:45;14.27;;;5.33;;
75793;SDS011;64418;47.536;19.074;2023-02-23T03:43:15;16.40;;;5.60;;
75793;SDS011;64418;47.536;19.074;2023-02-23T03:45:43;11.55;;;5.05;;
75793;SDS011;64418;47.536;19.074;2023-02-23T03:48:12;14.32;;;5.43;;
75793;SDS011;64418;47.536;19.074;2023-02-23T03:50:44;15.77;;;5.15;;
75793;SDS011;64418;47.536;19.074;2023-02-23T03:53:16;13.80;;;5.83;;
75793;SDS011;64418;47.536;19.074;2023-02-23T03:55:49;16.80;;;5.53;;
75793;SDS011;64418;47.536;19.074;2023-02-23T03:58:21;14.43;;;5.37;;
75793;SDS011;64418;47.536;19.074;2023-02-23T04:00:53;14.77;;;5.72;;
75793;SDS011;64418;47.536;19.074;2023-02-23T04:03:23;11.60;;;6.03;;
75793;SDS011;64418;47.536;19.074;2023-02-23T04:05:52;14.37;;;5.43;;
75793;SDS011;64418;47.536;19.074;2023-02-23T04:08:20;12.20;;;4.60;;
75793;SDS011;64418;47.536;19.074;2023-02-23T04:10:53;11.32;;;4.75;;
75793;SDS011;64418;47.536;19.074;2023-02-23T04:13:26;14.27;;;4.93;;
75793;SDS011;64418;47.536;19.074;2023-02-23T04:15:55;10.70;;;4.95;;
75793;SDS011;64418;47.536;19.074;2023-02-23T04:18:24;13.60;;;5.53;;
75793;SDS011;64418;47.536;19.074;2023-02-23T04:20:51;15.80;;;5.10;;
75793;SDS011;64418;47.536;19.074;2023-02-23T04:23:18;17.05;;;5.90;;
75793;SDS011;64418;47.536;19.074;2023-02-23T04:25:44;15.63;;;5.32;;
75793;SDS011;64418;47.536;19.074;2023-02-23T04:28:11;13.80;;;5.40;;
75793;SDS011;64418;47.536;19.074;2023-02-23T04:30:36;11.88;;;4.68;;
75793;SDS011;64418;47.536;19.074;2023-02-23T04:33:02;18.60;;;5.65;;
75793;SDS011;64418;47.536;19.074;2023-02-23T04:35:28;11.37;;;5.17;;
75793;SDS011;64418;47.536;19.074;2023-02-23T04:37:54;12.98;;;4.97;;
75793;SDS011;64418;47.536;19.074;2023-02-23T04:40:20;13.05;;;5.40;;
75793;SDS011;64418;47.536;19.074;2023-02-23T04:42:46;14.27;;;5.50;;
75793;SDS011;64418;47.536;19.074;2023-02-23T04:45:14;16.23;;;5.75;;
75793;SDS011;64418;47.536;19.074;2023-02-23T04:47:40;13.90;;;5.03;;
75793;SDS011;64418;47.536;19.074;2023-02-23T04:50:06;15.02;;;5.40;;
75793;SDS011;64418;47.536;19.074;2023-02-23T04:52:33;15.35;;;5.28;;
75793;SDS011;64418;47.536;19.074;2023-02-23T04:54:58;15.88;;;5.75;;
75793;SDS011;64418;47.536;19.074;2023-02-23T04:57:24;18.87;;;6.57;;
75793;SDS011;64418;47.536;19.074;2023-02-23T04:59:50;13.15;;;5.70;;
75793;SDS011;64418;47.536;19.074;2023-02-23T05:02:17;17.95;;;5.62;;
75793;SDS011;64418;47.536;19.074;2023-02-23T05:04:43;11.40;;;5.97;;
75793;SDS011;64418;47.536;19.074;2023-02-23T05:07:09;12.98;;;5.95;;
75793;SDS011;64418;47.536;19.074;2023-02-23T05:09:35;18.80;;;6.00;;
75793;SDS011;64418;47.536;19.074;2023-02-23T05:12:00;13.20;;;5.73;;
75793;SDS011;64418;47.536;19.074;2023-02-23T05:14:26;14.85;;;6.18;;
75793;SDS011;64418;47.536;19.074;2023-02-23T05:16:52;15.60;;;6.13;;
75793;SDS011;64418;47.536;19.074;2023-02-23T05:19:19;16.55;;;6.20;;
75793;SDS011;64418;47.536;19.074;2023-02-23T05:21:45;15.88;;;5.70;;
75793;SDS011;64418;47.536;19.074;2023-02-23T05:24:11;19.30;;;6.63;;
75793;SDS011;64418;47.536;19.074;2023-02-23T05:26:36;17.62;;;5.75;;
75793;SDS011;64418;47.536;19.074;2023-02-23T05:29:02;17.77;;;5.90;;
75793;SDS011;64418;47.536;19.074;2023-02-23T05:31:28;16.92;;;6.22;;
75793;SDS011;64418;47.536;19.074;2023-02-23T05:33:54;14.20;;;5.97;;
75793;SDS011;64418;47.536;19.074;2023-02-23T05:36:21;15.30;;;5.93;;
75793;SDS011;64418;47.536;19.074;2023-02-23T05:38:47;15.00;;;5.97;;
75793;SDS011;64418;47.536;19.074;2023-02-23T05:41:17;15.18;;;5.90;;
75793;SDS011;64418;47.536;19.074;2023-02-23T05:43:45;15.55;;;6.03;;
75793;SDS011;64418;47.536;19.074;2023-02-23T05:46:12;14.10;;;5.93;;
75793;SDS011;64418;47.536;19.074;2023-02-23T05:48:40;13.77;;;6.07;;
75793;SDS011;64418;47.536;19.074;2023-02-23T05:51:06;16.10;;;6.57;;
75793;SDS011;64418;47.536;19.074;2023-02-23T05:53:35;14.27;;;5.95;;
75793;SDS011;64418;47.536;19.074;2023-02-23T05:56:01;15.73;;;6.25;;
75793;SDS011;64418;47.536;19.074;2023-02-23T05:58:29;16.43;;;6.47;;
75793;SDS011;64418;47.536;19.074;2023-02-23T06:00:55;14.93;;;6.28;;
75793;SDS011;64418;47.536;19.074;2023-02-23T06:03:21;17.73;;;6.43;;
75793;SDS011;64418;47.536;19.074;2023-02-23T06:05:50;15.57;;;5.75;;
75793;SDS011;64418;47.536;19.074;2023-02-23T06:08:17;17.97;;;5.97;;
75793;SDS011;64418;47.536;19.074;2023-02-23T06:10:45;19.77;;;5.68;;
75793;SDS011;64418;47.536;19.074;2023-02-23T06:13:10;16.73;;;6.50;;
75793;SDS011;64418;47.536;19.074;2023-02-23T06:15:38;21.08;;;6.53;;
75793;SDS011;64418;47.536;19.074;2023-02-23T06:18:04;19.05;;;6.62;;
75793;SDS011;64418;47.536;19.074;2023-02-23T06:20:30;16.37;;;6.93;;
75793;SDS011;64418;47.536;19.074;2023-02-23T06:22:56;18.27;;;6.80;;
75793;SDS011;64418;47.536;19.074;2023-02-23T06:25:22;13.52;;;6.40;;
75793;SDS011;64418;47.536;19.074;2023-02-23T06:27:50;15.93;;;6.07;;
75793;SDS011;64418;47.536;19.074;2023-02-23T06:30:16;17.27;;;5.93;;
75793;SDS011;64418;47.536;19.074;2023-02-23T06:32:42;16.50;;;6.22;;
75793;SDS011;64418;47.536;19.074;2023-02-23T06:35:08;16.33;;;6.65;;
75793;SDS011;64418;47.536;19.074;2023-02-23T06:37:34;20.27;;;6.47;;
75793;SDS011;64418;47.536;19.074;2023-02-23T06:40:00;15.65;;;6.22;;
75793;SDS011;64418;47.536;19.074;2023-02-23T06:42:26;15.25;;;5.70;;
75793;SDS011;64418;47.536;19.074;2023-02-23T06:44:54;15.30;;;6.70;;
75793;SDS011;64418;47.536;19.074;2023-02-23T06:47:20;16.83;;;6.65;;
75793;SDS011;64418;47.536;19.074;2023-02-23T06:49:45;15.13;;;6.50;;
75793;SDS011;64418;47.536;19.074;2023-02-23T06:52:11;14.07;;;5.50;;
75793;SDS011;64418;47.536;19.074;2023-02-23T06:54:37;13.62;;;6.68;;
75793;SDS011;64418;47.536;19.074;2023-02-23T06:57:03;15.43;;;6.37;;
75793;SDS011;64418;47.536;19.074;2023-02-23T06:59:29;18.83;;;6.70;;
75793;SDS011;64418;47.536;19.074;2023-02-23T07:01:56;20.27;;;6.57;;
75793;SDS011;64418;47.536;19.074;2023-02-23T07:04:22;20.85;;;6.30;;
75793;SDS011;64418;47.536;19.074;2023-02-23T07:06:48;13.83;;;6.67;;
75793;SDS011;64418;47.536;19.074;2023-02-23T07:09:14;17.58;;;6.43;;
75793;SDS011;64418;47.536;19.074;2023-02-23T07:11:39;16.07;;;6.17;;
75793;SDS011;64418;47.536;19.074;2023-02-23T07:14:05;14.00;;;6.45;;
75793;SDS011;64418;47.536;19.074;2023-02-23T07:16:34;15.23;;;6.43;;
75793;SDS011;64418;47.536;19.074;2023-02-23T07:19:01;16.60;;;6.20;;
75793;SDS011;64418;47.536;19.074;2023-02-23T07:21:31;15.00;;;6.40;;
75793;SDS011;64418;47.536;19.074;2023-02-23T07:23:58;15.52;;;6.53;;
75793;SDS011;64418;47.536;19.074;2023-02-23T07:26:24;20.55;;;7.00;;
75793;SDS011;64418;47.536;19.074;2023-02-23T07:28:50;16.10;;;6.03;;
75793;SDS011;64418;47.536;19.074;2023-02-23T07:31:16;14.02;;;6.45;;
75793;SDS011;64418;47.536;19.074;2023-02-23T07:33:42;14.63;;;6.32;;
75793;SDS011;64418;47.536;19.074;2023-02-23T07:36:10;22.03;;;6.70;;
75793;SDS011;64418;47.536;19.074;2023-02-23T07:38:36;13.48;;;5.57;;
75793;SDS011;64418;47.536;19.074;2023-02-23T07:41:02;15.63;;;6.00;;
75793;SDS011;64418;47.536;19.074;2023-02-23T07:43:29;15.20;;;6.40;;
75793;SDS011;64418;47.536;19.074;2023-02-23T07:45:57;14.65;;;5.60;;
75793;SDS011;64418;47.536;19.074;2023-02-23T07:48:24;17.27;;;6.20;;
75793;SDS011;64418;47.536;19.074;2023-02-23T07:50:50;17.85;;;6.07;;
75793;SDS011;64418;47.536;19.074;2023-02-23T07:53:18;12.65;;;5.85;;
75793;SDS011;64418;47.536;19.074;2023-02-23T07:55:44;12.65;;;5.93;;
75793;SDS011;64418;47.536;19.074;2023-02-23T07:58:09;16.37;;;5.90;;
75793;SDS011;64418;47.536;19.074;2023-02-23T08:00:35;13.65;;;5.82;;
75793;SDS011;64418;47.536;19.074;2023-02-23T08:03:01;14.57;;;6.50;;
75793;SDS011;64418;47.536;19.074;2023-02-23T08:05:27;13.97;;;6.10;;
75793;SDS011;64418;47.536;19.074;2023-02-23T08:07:53;15.00;;;5.70;;
75793;SDS011;64418;47.536;19.074;2023-02-23T08:10:21;16.47;;;5.90;;
75793;SDS011;64418;47.536;19.074;2023-02-23T08:12:47;16.12;;;5.68;;
75793;SDS011;64418;47.536;19.074;2023-02-23T08:15:13;15.32;;;5.60;;
75793;SDS011;64418;47.536;19.074;2023-02-23T08:17:39;12.50;;;5.78;;
75793;SDS011;64418;47.536;19.074;2023-02-23T08:20:05;15.32;;;5.50;;
75793;SDS011;64418;47.536;19.074;2023-02-23T08:22:33;14.77;;;5.33;;
75793;SDS011;64418;47.536;19.074;2023-02-23T08:24:58;12.63;;;5.45;;
75793;SDS011;64418;47.536;19.074;2023-02-23T08:27:25;11.95;;;5.62;;
75793;SDS011;64418;47.536;19.074;2023-02-23T08:29:55;15.10;;;5.20;;
75793;SDS011;64418;47.536;19.074;2023-02-23T08:32:21;13.40;;;6.43;;
75793;SDS011;64418;47.536;19.074;2023-02-23T08:34:47;13.48;;;5.22;;
75793;SDS011;64418;47.536;19.074;2023-02-23T08:37:13;16.87;;;6.07;;
75793;SDS011;64418;47.536;19.074;2023-02-23T08:39:39;15.67;;;5.70;;
75793;SDS011;64418;47.536;19.074;2023-02-23T08:42:05;14.77;;;6.32;;
75793;SDS011;64418;47.536;19.074;2023-02-23T08:44:37;14.20;;;5.67;;
75793;SDS011;64418;47.536;19.074;2023-02-23T08:47:03;17.15;;;6.45;;
75793;SDS011;64418;47.536;19.074;2023-02-23T08:49:29;12.32;;;6.60;;
75793;SDS011;64418;47.536;19.074;2023-02-23T08:51:55;13.18;;;6.15;;
75793;SDS011;64418;47.536;19.074;2023-02-23T08:54:21;12.97;;;5.73;;
75793;SDS011;64418;47.536;19.074;2023-02-23T08:56:46;13.68;;;5.72;;
75793;SDS011;64418;47.536;19.074;2023-02-23T08:59:12;16.37;;;5.78;;
75793;SDS011;64418;47.536;19.074;2023-02-23T09:01:40;14.83;;;5.40;;
75793;SDS011;64418;47.536;19.074;2023-02-23T09:04:06;12.37;;;5.37;;
75793;SDS011;64418;47.536;19.074;2023-02-23T09:06:32;15.35;;;5.37;;
75793;SDS011;64418;47.536;19.074;2023-02-23T09:08:59;14.10;;;5.78;;
75793;SDS011;64418;47.536;19.074;2023-02-23T09:11:25;16.10;;;5.65;;
75793;SDS011;64418;47.536;19.074;2023-02-23T09:13:50;11.90;;;5.13;;
75793;SDS011;64418;47.536;19.074;2023-02-23T09:16:16;12.32;;;6.10;;
75793;SDS011;64418;47.536;19.074;2023-02-23T09:18:44;15.00;;;6.55;;
75793;SDS011;64418;47.536;19.074;2023-02-23T09:21:13;16.55;;;6.28;;
75793;SDS011;64418;47.536;19.074;2023-02-23T09:23:41;17.90;;;5.83;;
75793;SDS011;64418;47.536;19.074;2023-02-23T09:26:07;18.12;;;5.93;;
75793;SDS011;64418;47.536;19.074;2023-02-23T09:28:33;13.13;;;5.65;;
75793;SDS011;64418;47.536;19.074;2023-02-23T09:31:03;13.85;;;4.87;;
75793;SDS011;64418;47.536;19.074;2023-02-23T09:33:30;10.77;;;4.80;;
75793;SDS011;64418;47.536;19.074;2023-02-23T09:35:57;14.45;;;5.43;;
75793;SDS011;64418;47.536;19.074;2023-02-23T09:38:23;10.65;;;5.15;;
75793;SDS011;64418;47.536;19.074;2023-02-23T09:40:50;12.48;;;5.10;;
75793;SDS011;64418;47.536;19.074;2023-02-23T09:43:19;12.93;;;5.45;;
75793;SDS011;64418;47.536;19.074;2023-02-23T09:45:51;14.33;;;5.60;;
75793;SDS011;64418;47.536;19.074;2023-02-23T09:48:23;15.43;;;5.65;;
75793;SDS011;64418;47.536;19.074;2023-02-23T09:50:51;13.88;;;5.10;;
75793;SDS011;64418;47.536;19.074;2023-02-23T09:53:28;12.90;;;4.82;;
75793;SDS011;64418;47.536;19.074;2023-02-23T09:55:59;15.27;;;5.03;;
75793;SDS011;64418;47.536;19.074;2023-02-23T09:58:27;14.73;;;5.60;;
75793;SDS011;64418;47.536;19.074;2023-02-23T10:01:01;14.07;;;5.87;;
75793;SDS011;64418;47.536;19.074;2023-02-23T10:03:45;15.23;;;5.40;;
75793;SDS011;64418;47.536;19.074;2023-02-23T10:06:18;15.68;;;5.32;;
75793;SDS011;64418;47.536;19.074;2023-02-23T10:08:47;14.95;;;5.43;;
75793;SDS011;64418;47.536;19.074;2023-02-23T10:11:23;11.43;;;4.97;;
75793;SDS011;64418;47.536;19.074;2023-02-23T10:13:56;13.57;;;5.53;;
75793;SDS011;64418;47.536;19.074;2023-02-23T10:16:34;19.98;;;6.57;;
75793;SDS011;64418;47.536;19.074;2023-02-23T10:19:10;15.20;;;5.80;;
75793;SDS011;64418;47.536;19.074;2023-02-23T10:21:44;10.60;;;5.30;;
75793;SDS011;64418;47.536;19.074;2023-02-23T10:24:18;15.30;;;5.80;;
75793;SDS011;64418;47.536;19.074;2023-02-23T10:26:50;10.60;;;4.37;;
75793;SDS011;64418;47.536;19.074;2023-02-23T10:29:20;14.38;;;4.93;;
75793;SDS011;64418;47.536;19.074;2023-02-23T10:31:50;9.93;;;4.70;;
75793;SDS011;64418;47.536;19.074;2023-02-23T10:34:20;10.27;;;4.90;;
75793;SDS011;64418;47.536;19.074;2023-02-23T10:36:50;15.60;;;5.80;;
75793;SDS011;64418;47.536;19.074;2023-02-23T10:39:23;17.97;;;6.00;;
75793;SDS011;64418;47.536;19.074;2023-02-23T10:41:50;14.70;;;5.50;;
75793;SDS011;64418;47.536;19.074;2023-02-23T10:44:18;16.15;;;5.35;;
75793;SDS011;64418;47.536;19.074;2023-02-23T10:46:48;13.35;;;4.93;;
75793;SDS011;64418;47.536;19.074;2023-02-23T10:49:18;13.35;;;5.53;;
75793;SDS011;64418;47.536;19.074;2023-02-23T10:51:45;15.07;;;6.23;;
75793;SDS011;64418;47.536;19.074;2023-02-23T10:57:04;14.95;;;4.97;;
75793;SDS011;64418;47.536;19.074;2023-02-23T10:59:31;13.80;;;4.97;;
75793;SDS011;64418;47.536;19.074;2023-02-23T11:01:58;15.35;;;5.80;;
75793;SDS011;64418;47.536;19.074;2023-02-23T11:04:24;12.67;;;5.10;;
75793;SDS011;64418;47.536;19.074;2023-02-23T11:07:04;11.93;;;5.12;;
75793;SDS011;64418;47.536;19.074;2023-02-23T11:09:32;12.95;;;5.20;;
75793;SDS011;64418;47.536;19.074;2023-02-23T11:12:00;12.90;;;5.10;;
75793;SDS011;64418;47.536;19.074;2023-02-23T11:14:28;14.25;;;5.40;;
75793;SDS011;64418;47.536;19.074;2023-02-23T11:16:56;12.43;;;5.20;;
75793;SDS011;64418;47.536;19.074;2023-02-23T11:19:32;13.77;;;5.35;;
75793;SDS011;64418;47.536;19.074;2023-02-23T11:22:00;10.63;;;4.97;;
75793;SDS011;64418;47.536;19.074;2023-02-23T11:24:31;12.63;;;5.60;;
75793;SDS011;64418;47.536;19.074;2023-02-23T11:27:01;13.60;;;5.35;;
75793;SDS011;64418;47.536;19.074;2023-02-23T11:29:30;12.70;;;5.20;;
75793;SDS011;64418;47.536;19.074;2023-02-23T11:32:02;13.50;;;5.37;;
75793;SDS011;64418;47.536;19.074;2023-02-23T11:34:33;9.85;;;5.37;;
75793;SDS011;64418;47.536;19.074;2023-02-23T11:37:02;12.95;;;5.65;;
75793;SDS011;64418;47.536;19.074;2023-02-23T11:39:30;13.52;;;5.85;;
75793;SDS011;64418;47.536;19.074;2023-02-23T11:42:11;13.50;;;5.77;;
75793;SDS011;64418;47.536;19.074;2023-02-23T11:44:40;12.97;;;6.17;;
75793;SDS011;64418;47.536;19.074;2023-02-23T11:47:12;13.15;;;5.28;;
75793;SDS011;64418;47.536;19.074;2023-02-23T11:49:42;13.13;;;6.15;;
75793;SDS011;64418;47.536;19.074;2023-02-23T11:52:11;15.90;;;5.60;;
75793;SDS011;64418;47.536;19.074;2023-02-23T11:54:39;11.05;;;5.10;;
75793;SDS011;64418;47.536;19.074;2023-02-23T11:57:20;12.87;;;5.30;;
75793;SDS011;64418;47.536;19.074;2023-02-23T11:59:47;14.18;;;5.80;;
75793;SDS011;64418;47.536;19.074;2023-02-23T12:02:18;14.57;;;5.85;;
75793;SDS011;64418;47.536;19.074;2023-02-23T12:04:47;13.52;;;5.53;;
75793;SDS011;64418;47.536;19.074;2023-02-23T12:07:20;12.13;;;5.75;;
75793;SDS011;64418;47.536;19.074;2023-02-23T12:09:54;14.53;;;5.47;;
75793;SDS011;64418;47.536;19.074;2023-02-23T12:12:26;12.43;;;5.90;;
75793;SDS011;64418;47.536;19.074;2023-02-23T12:14:55;13.73;;;5.70;;
75793;SDS011;64418;47.536;19.074;2023-02-23T12:17:27;16.23;;;5.68;;
75793;SDS011;64418;47.536;19.074;2023-02-23T12:20:01;14.73;;;6.12;;
75793;SDS011;64418;47.536;19.074;2023-02-23T12:22:32;11.43;;;5.97;;
75793;SDS011;64418;47.536;19.074;2023-02-23T12:25:03;17.47;;;5.90;;
75793;SDS011;64418;47.536;19.074;2023-02-23T12:27:38;14.30;;;5.60;;
75793;SDS011;64418;47.536;19.074;2023-02-23T12:30:11;13.88;;;5.80;;
75793;SDS011;64418;47.536;19.074;2023-02-23T12:32:45;19.92;;;7.05;;
75793;SDS011;64418;47.536;19.074;2023-02-23T12:35:16;14.20;;;5.45;;
75793;SDS011;64418;47.536;19.074;2023-02-23T12:37:47;11.93;;;5.50;;
75793;SDS011;64418;47.536;19.074;2023-02-23T12:40:18;14.02;;;5.18;;
75793;SDS011;64418;47.536;19.074;2023-02-23T12:42:53;19.37;;;6.43;;
75793;SDS011;64418;47.536;19.074;2023-02-23T12:45:25;12.98;;;5.22;;
75793;SDS011;64418;47.536;19.074;2023-02-23T12:47:59;12.95;;;5.68;;
75793;SDS011;64418;47.536;19.074;2023-02-23T12:50:32;12.93;;;5.87;;
75793;SDS011;64418;47.536;19.074;2023-02-23T12:53:05;14.87;;;5.85;;
75793;SDS011;64418;47.536;19.074;2023-02-23T12:55:48;14.90;;;5.22;;
75793;SDS011;64418;47.536;19.074;2023-02-23T12:58:27;14.60;;;6.28;;
75793;SDS011;64418;47.536;19.074;2023-02-23T13:00:59;11.73;;;4.87;;
75793;SDS011;64418;47.536;19.074;2023-02-23T13:03:32;16.33;;;5.13;;
75793;SDS011;64418;47.536;19.074;2023-02-23T13:06:21;12.55;;;5.40;;
75793;SDS011;64418;47.536;19.074;2023-02-23T13:08:55;12.55;;;5.05;;
75793;SDS011;64418;47.536;19.074;2023-02-23T13:11:32;13.88;;;5.10;;
75793;SDS011;64418;47.536;19.074;2023-02-23T13:14:19;14.27;;;5.53;;
75793;SDS011;64418;47.536;19.074;2023-02-23T13:16:51;13.63;;;5.60;;
75793;SDS011;64418;47.536;19.074;2023-02-23T13:19:22;14.77;;;5.20;;
75793;SDS011;64418;47.536;19.074;2023-02-23T13:22:04;13.32;;;5.22;;
75793;SDS011;64418;47.536;19.074;2023-02-23T13:24:41;9.82;;;5.32;;
75793;SDS011;64418;47.536;19.074;2023-02-23T13:27:12;15.90;;;5.20;;
75793;SDS011;64418;47.536;19.074;2023-02-23T13:29:45;11.95;;;5.72;;
75793;SDS011;64418;47.536;19.074;2023-02-23T13:32:13;19.80;;;6.23;;
75793;SDS011;64418;47.536;19.074;2023-02-23T13:34:43;17.23;;;5.87;;
75793;SDS011;64418;47.536;19.074;2023-02-23T13:37:14;13.07;;;5.70;;
75793;SDS011;64418;47.536;19.074;2023-02-23T13:39:46;13.95;;;6.10;;
75793;SDS011;64418;47.536;19.074;2023-02-23T13:42:32;10.68;;;5.12;;
75793;SDS011;64418;47.536;19.074;2023-02-23T13:45:15;11.33;;;5.60;;
75793;SDS011;64418;47.536;19.074;2023-02-23T13:47:51;15.80;;;5.97;;
75793;SDS011;64418;47.536;19.074;2023-02-23T13:50:22;12.80;;;5.80;;
75793;SDS011;64418;47.536;19.074;2023-02-23T13:52:54;10.75;;;5.40;;
75793;SDS011;64418;47.536;19.074;2023-02-23T13:55:36;11.48;;;4.82;;
75793;SDS011;64418;47.536;19.074;2023-02-23T13:58:12;16.77;;;5.55;;
75793;SDS011;64418;47.536;19.074;2023-02-23T14:00:42;14.67;;;6.23;;
75793;SDS011;64418;47.536;19.074;2023-02-23T14:03:19;13.93;;;5.82;;
75793;SDS011;64418;47.536;19.074;2023-02-23T14:05:48;14.48;;;5.70;;
75793;SDS011;64418;47.536;19.074;2023-02-23T14:08:19;15.25;;;6.10;;
75793;SDS011;64418;47.536;19.074;2023-02-23T14:10:51;10.45;;;5.93;;
75793;SDS011;64418;47.536;19.074;2023-02-23T14:13:25;13.77;;;6.00;;
75793;SDS011;64418;47.536;19.074;2023-02-23T14:16:11;15.40;;;5.68;;
75793;SDS011;64418;47.536;19.074;2023-02-23T14:18:55;13.80;;;5.57;;
75793;SDS011;64418;47.536;19.074;2023-02-23T14:21:56;15.98;;;5.93;;
75793;SDS011;64418;47.536;19.074;2023-02-23T14:24:25;12.27;;;6.05;;
75793;SDS011;64418;47.536;19.074;2023-02-23T14:30:11;13.65;;;5.97;;
75793;SDS011;64418;47.536;19.074;2023-02-23T14:32:41;12.05;;;5.50;;
75793;SDS011;64418;47.536;19.074;2023-02-23T14:38:09;13.00;;;5.32;;
75793;SDS011;64418;47.536;19.074;2023-02-23T14:40:51;13.80;;;5.90;;
75793;SDS011;64418;47.536;19.074;2023-02-23T14:43:31;13.05;;;5.60;;
75793;SDS011;64418;47.536;19.074;2023-02-23T14:46:07;14.93;;;6.18;;
75793;SDS011;64418;47.536;19.074;2023-02-23T14:48:36;12.57;;;5.57;;
75793;SDS011;64418;47.536;19.074;2023-02-23T14:51:19;12.10;;;5.82;;